sensor_id;sensor_type;location;lat;lon;timestamp;P1;durP1;ratioP1;P2;durP2;ratioP2
6864;SDS011;3471;49.678;8.388;2024-01-15T00:01:49;57.72;;;52.13;;
6864;SDS011;3471;49.678;8.388;2024-01-15T00:04:14;159.82;;;149.63;;
6864;SDS011;3471;49.678;8.388;2024-01-15T00:06:40;197.82;;;187.65;;
6864;SDS011;3471;49.678;8.388;2024-01-15T00:09:06;88.50;;;80.50;;
6864;SDS011;3471;49.678;8.388;2024-01-15T00:11:31;58.40;;;52.47;;
6864;SDS011;3471;49.678;8.388;2024-01-15T00:13:57;58.50;;;47.15;;
6864;SDS011;3471;49.678;8.388;2024-01-15T00:16:23;86.50;;;79.70;;
6864;SDS011;3471;49.678;8.388;2024-01-15T00:18:49;173.77;;;164.75;;
6864;SDS011;3471;49.678;8.388;2024-01-15T00:21:15;58.65;;;53.47;;
6864;SDS011;3471;49.678;8.388;2024-01-15T00:23:43;75.00;;;68.00;;
6864;SDS011;3471;49.678;8.388;2024-01-15T00:26:09;52.83;;;39.22;;
6864;SDS011;3471;49.678;8.388;2024-01-15T00:28:36;48.50;;;43.22;;
6864;SDS011;3471;49.678;8.388;2024-01-15T00:31:02;46.88;;;30.92;;
6864;SDS011;3471;49.678;8.388;2024-01-15T00:33:27;38.42;;;34.53;;
6864;SDS011;3471;49.678;8.388;2024-01-15T00:35:53;103.80;;;95.80;;
6864;SDS011;3471;49.678;8.388;2024-01-15T00:38:18;116.47;;;108.65;;
6864;SDS011;3471;49.678;8.388;2024-01-15T00:40:45;85.77;;;80.27;;
6864;SDS011;3471;49.678;8.388;2024-01-15T00:43:10;66.80;;;60.40;;
6864;SDS011;3471;49.678;8.388;2024-01-15T00:45:36;42.67;;;29.65;;
6864;SDS011;3471;49.678;8.388;2024-01-15T00:48:02;63.75;;;38.92;;
6864;SDS011;3471;49.678;8.388;2024-01-15T00:50:28;41.40;;;35.92;;
6864;SDS011;3471;49.678;8.388;2024-01-15T00:52:54;100.30;;;91.85;;
6864;SDS011;3471;49.678;8.388;2024-01-15T00:55:19;58.03;;;42.70;;
6864;SDS011;3471;49.678;8.388;2024-01-15T00:57:45;50.43;;;38.60;;
6864;SDS011;3471;49.678;8.388;2024-01-15T01:00:11;38.53;;;26.98;;
6864;SDS011;3471;49.678;8.388;2024-01-15T01:02:37;51.17;;;39.08;;
6864;SDS011;3471;49.678;8.388;2024-01-15T01:05:02;54.05;;;48.83;;
6864;SDS011;3471;49.678;8.388;2024-01-15T01:07:28;47.10;;;41.88;;
6864;SDS011;3471;49.678;8.388;2024-01-15T01:09:54;35.07;;;25.70;;
6864;SDS011;3471;49.678;8.388;2024-01-15T01:12:20;57.72;;;51.67;;
6864;SDS011;3471;49.678;8.388;2024-01-15T01:14:46;93.90;;;86.20;;
6864;SDS011;3471;49.678;8.388;2024-01-15T01:17:11;70.00;;;63.37;;
6864;SDS011;3471;49.678;8.388;2024-01-15T01:19:37;65.53;;;60.00;;
6864;SDS011;3471;49.678;8.388;2024-01-15T01:22:03;152.27;;;143.18;;
6864;SDS011;3471;49.678;8.388;2024-01-15T01:24:28;104.40;;;95.33;;
6864;SDS011;3471;49.678;8.388;2024-01-15T01:26:54;244.93;;;231.30;;
6864;SDS011;3471;49.678;8.388;2024-01-15T01:29:20;277.02;;;262.13;;
6864;SDS011;3471;49.678;8.388;2024-01-15T01:31:45;390.47;;;371.07;;
6864;SDS011;3471;49.678;8.388;2024-01-15T01:34:13;335.10;;;316.97;;
6864;SDS011;3471;49.678;8.388;2024-01-15T01:36:40;178.50;;;168.95;;
6864;SDS011;3471;49.678;8.388;2024-01-15T01:39:05;277.55;;;263.50;;
6864;SDS011;3471;49.678;8.388;2024-01-15T01:41:31;417.85;;;397.10;;
6864;SDS011;3471;49.678;8.388;2024-01-15T01:43:57;441.07;;;415.53;;
6864;SDS011;3471;49.678;8.388;2024-01-15T01:46:23;285.45;;;270.67;;
6864;SDS011;3471;49.678;8.388;2024-01-15T01:48:50;424.55;;;402.30;;
6864;SDS011;3471;49.678;8.388;2024-01-15T01:51:17;304.75;;;289.73;;
6864;SDS011;3471;49.678;8.388;2024-01-15T01:53:43;370.42;;;352.23;;
6864;SDS011;3471;49.678;8.388;2024-01-15T01:56:10;294.02;;;279.30;;
6864;SDS011;3471;49.678;8.388;2024-01-15T01:58:37;231.82;;;219.50;;
6864;SDS011;3471;49.678;8.388;2024-01-15T02:01:03;362.10;;;345.40;;
6864;SDS011;3471;49.678;8.388;2024-01-15T02:03:30;313.70;;;299.35;;
6864;SDS011;3471;49.678;8.388;2024-01-15T02:05:56;274.90;;;260.25;;
6864;SDS011;3471;49.678;8.388;2024-01-15T02:08:22;178.73;;;169.48;;
6864;SDS011;3471;49.678;8.388;2024-01-15T02:10:48;118.40;;;110.75;;
6864;SDS011;3471;49.678;8.388;2024-01-15T02:13:13;130.13;;;122.05;;
6864;SDS011;3471;49.678;8.388;2024-01-15T02:15:39;129.43;;;121.75;;
6864;SDS011;3471;49.678;8.388;2024-01-15T02:18:06;195.65;;;185.23;;
6864;SDS011;3471;49.678;8.388;2024-01-15T02:20:35;167.85;;;159.00;;
6864;SDS011;3471;49.678;8.388;2024-01-15T02:25:36;190.07;;;179.23;;
6864;SDS011;3471;49.678;8.388;2024-01-15T02:28:04;206.23;;;196.18;;
6864;SDS011;3471;49.678;8.388;2024-01-15T02:30:32;177.57;;;166.95;;
6864;SDS011;3471;49.678;8.388;2024-01-15T02:33:01;224.15;;;212.95;;
6864;SDS011;3471;49.678;8.388;2024-01-15T02:35:27;200.40;;;189.60;;
6864;SDS011;3471;49.678;8.388;2024-01-15T02:37:52;191.02;;;181.35;;
6864;SDS011;3471;49.678;8.388;2024-01-15T02:40:18;97.00;;;88.03;;
6864;SDS011;3471;49.678;8.388;2024-01-15T02:42:44;199.87;;;188.07;;
6864;SDS011;3471;49.678;8.388;2024-01-15T02:45:09;128.25;;;120.50;;
6864;SDS011;3471;49.678;8.388;2024-01-15T02:47:35;175.87;;;167.57;;
6864;SDS011;3471;49.678;8.388;2024-01-15T02:50:00;156.68;;;148.38;;
6864;SDS011;3471;49.678;8.388;2024-01-15T02:52:26;163.87;;;154.57;;
6864;SDS011;3471;49.678;8.388;2024-01-15T02:54:51;108.23;;;101.63;;
6864;SDS011;3471;49.678;8.388;2024-01-15T02:57:17;69.38;;;63.67;;
6864;SDS011;3471;49.678;8.388;2024-01-15T02:59:42;241.03;;;229.30;;
6864;SDS011;3471;49.678;8.388;2024-01-15T03:02:08;324.35;;;309.77;;
6864;SDS011;3471;49.678;8.388;2024-01-15T03:04:33;309.67;;;294.77;;
6864;SDS011;3471;49.678;8.388;2024-01-15T03:06:59;103.87;;;97.40;;
6864;SDS011;3471;49.678;8.388;2024-01-15T03:09:25;192.80;;;183.48;;
6864;SDS011;3471;49.678;8.388;2024-01-15T03:11:50;295.40;;;281.30;;
6864;SDS011;3471;49.678;8.388;2024-01-15T03:14:16;224.13;;;212.85;;
6864;SDS011;3471;49.678;8.388;2024-01-15T03:16:41;268.33;;;253.90;;
6864;SDS011;3471;49.678;8.388;2024-01-15T03:19:07;135.63;;;128.53;;
6864;SDS011;3471;49.678;8.388;2024-01-15T03:21:32;138.73;;;131.70;;
6864;SDS011;3471;49.678;8.388;2024-01-15T03:23:58;224.17;;;212.57;;
6864;SDS011;3471;49.678;8.388;2024-01-15T03:26:23;325.90;;;309.45;;
6864;SDS011;3471;49.678;8.388;2024-01-15T03:28:49;291.23;;;277.53;;
6864;SDS011;3471;49.678;8.388;2024-01-15T03:31:14;343.37;;;324.77;;
6864;SDS011;3471;49.678;8.388;2024-01-15T03:33:40;214.45;;;202.93;;
6864;SDS011;3471;49.678;8.388;2024-01-15T03:36:06;205.20;;;194.73;;
6864;SDS011;3471;49.678;8.388;2024-01-15T03:38:32;177.40;;;166.80;;
6864;SDS011;3471;49.678;8.388;2024-01-15T03:40:57;208.93;;;199.50;;
6864;SDS011;3471;49.678;8.388;2024-01-15T03:43:23;194.30;;;184.45;;
6864;SDS011;3471;49.678;8.388;2024-01-15T03:45:48;301.43;;;287.37;;
6864;SDS011;3471;49.678;8.388;2024-01-15T03:48:14;253.32;;;239.63;;
6864;SDS011;3471;49.678;8.388;2024-01-15T03:50:39;188.43;;;178.43;;
6864;SDS011;3471;49.678;8.388;2024-01-15T03:53:05;175.97;;;166.97;;
6864;SDS011;3471;49.678;8.388;2024-01-15T03:55:30;291.67;;;277.20;;
6864;SDS011;3471;49.678;8.388;2024-01-15T03:57:57;392.65;;;373.65;;
6864;SDS011;3471;49.678;8.388;2024-01-15T04:00:22;342.95;;;326.85;;
6864;SDS011;3471;49.678;8.388;2024-01-15T04:02:48;312.87;;;298.17;;
6864;SDS011;3471;49.678;8.388;2024-01-15T04:05:13;272.77;;;260.58;;
6864;SDS011;3471;49.678;8.388;2024-01-15T04:07:39;256.20;;;243.60;;
6864;SDS011;3471;49.678;8.388;2024-01-15T04:10:05;233.67;;;223.20;;
6864;SDS011;3471;49.678;8.388;2024-01-15T04:12:30;365.25;;;346.90;;
6864;SDS011;3471;49.678;8.388;2024-01-15T04:14:56;369.95;;;351.60;;
6864;SDS011;3471;49.678;8.388;2024-01-15T04:17:22;240.82;;;229.43;;
6864;SDS011;3471;49.678;8.388;2024-01-15T04:19:47;406.70;;;384.80;;
6864;SDS011;3471;49.678;8.388;2024-01-15T04:22:13;219.13;;;208.70;;
6864;SDS011;3471;49.678;8.388;2024-01-15T04:24:39;190.15;;;180.82;;
6864;SDS011;3471;49.678;8.388;2024-01-15T04:27:05;178.37;;;168.00;;
6864;SDS011;3471;49.678;8.388;2024-01-15T04:29:31;193.52;;;182.43;;
6864;SDS011;3471;49.678;8.388;2024-01-15T04:31:56;360.33;;;343.23;;
6864;SDS011;3471;49.678;8.388;2024-01-15T04:34:22;284.03;;;270.90;;
6864;SDS011;3471;49.678;8.388;2024-01-15T04:36:47;308.63;;;294.17;;
6864;SDS011;3471;49.678;8.388;2024-01-15T04:39:13;259.07;;;247.07;;
6864;SDS011;3471;49.678;8.388;2024-01-15T04:41:39;166.52;;;156.63;;
6864;SDS011;3471;49.678;8.388;2024-01-15T04:44:04;198.50;;;186.93;;
6864;SDS011;3471;49.678;8.388;2024-01-15T04:46:30;308.27;;;292.13;;
6864;SDS011;3471;49.678;8.388;2024-01-15T04:48:55;240.18;;;227.57;;
6864;SDS011;3471;49.678;8.388;2024-01-15T04:51:21;252.65;;;240.18;;
6864;SDS011;3471;49.678;8.388;2024-01-15T04:53:46;194.00;;;182.30;;
6864;SDS011;3471;49.678;8.388;2024-01-15T04:56:12;257.70;;;246.10;;
6864;SDS011;3471;49.678;8.388;2024-01-15T04:58:38;359.07;;;340.93;;
6864;SDS011;3471;49.678;8.388;2024-01-15T05:01:03;220.53;;;210.83;;
6864;SDS011;3471;49.678;8.388;2024-01-15T05:03:29;182.07;;;173.00;;
6864;SDS011;3471;49.678;8.388;2024-01-15T05:05:54;93.67;;;86.67;;
6864;SDS011;3471;49.678;8.388;2024-01-15T05:08:20;138.25;;;129.88;;
6864;SDS011;3471;49.678;8.388;2024-01-15T05:10:46;100.50;;;94.07;;
6864;SDS011;3471;49.678;8.388;2024-01-15T05:13:12;116.60;;;109.30;;
6864;SDS011;3471;49.678;8.388;2024-01-15T05:15:38;124.63;;;118.10;;
6864;SDS011;3471;49.678;8.388;2024-01-15T05:18:04;257.85;;;245.80;;
6864;SDS011;3471;49.678;8.388;2024-01-15T05:20:29;231.23;;;220.85;;
6864;SDS011;3471;49.678;8.388;2024-01-15T05:22:55;35.03;;;22.88;;
6864;SDS011;3471;49.678;8.388;2024-01-15T05:25:21;139.40;;;131.77;;
6864;SDS011;3471;49.678;8.388;2024-01-15T05:27:47;85.18;;;79.32;;
6864;SDS011;3471;49.678;8.388;2024-01-15T05:30:12;150.15;;;142.77;;
6864;SDS011;3471;49.678;8.388;2024-01-15T05:32:38;138.67;;;130.63;;
6864;SDS011;3471;49.678;8.388;2024-01-15T05:35:04;135.97;;;127.90;;
6864;SDS011;3471;49.678;8.388;2024-01-15T05:37:30;85.37;;;78.67;;
6864;SDS011;3471;49.678;8.388;2024-01-15T05:39:55;239.02;;;228.40;;
6864;SDS011;3471;49.678;8.388;2024-01-15T05:42:21;145.87;;;138.90;;
6864;SDS011;3471;49.678;8.388;2024-01-15T05:44:47;140.30;;;133.03;;
6864;SDS011;3471;49.678;8.388;2024-01-15T05:47:12;362.15;;;343.70;;
6864;SDS011;3471;49.678;8.388;2024-01-15T05:49:38;248.27;;;236.27;;
6864;SDS011;3471;49.678;8.388;2024-01-15T05:52:04;204.88;;;194.35;;
6864;SDS011;3471;49.678;8.388;2024-01-15T05:54:29;301.23;;;287.38;;
6864;SDS011;3471;49.678;8.388;2024-01-15T05:56:55;276.40;;;264.08;;
6864;SDS011;3471;49.678;8.388;2024-01-15T05:59:20;289.13;;;275.47;;
6864;SDS011;3471;49.678;8.388;2024-01-15T06:01:46;256.55;;;244.63;;
6864;SDS011;3471;49.678;8.388;2024-01-15T06:04:11;245.50;;;233.87;;
6864;SDS011;3471;49.678;8.388;2024-01-15T06:06:37;223.93;;;212.70;;
6864;SDS011;3471;49.678;8.388;2024-01-15T06:09:03;175.45;;;167.00;;
6864;SDS011;3471;49.678;8.388;2024-01-15T06:11:31;81.88;;;76.43;;
6864;SDS011;3471;49.678;8.388;2024-01-15T06:13:57;139.93;;;132.23;;
6864;SDS011;3471;49.678;8.388;2024-01-15T06:16:23;293.85;;;280.10;;
6864;SDS011;3471;49.678;8.388;2024-01-15T06:18:49;270.52;;;258.02;;
6864;SDS011;3471;49.678;8.388;2024-01-15T06:21:15;286.23;;;272.77;;
6864;SDS011;3471;49.678;8.388;2024-01-15T06:23:41;287.35;;;274.60;;
6864;SDS011;3471;49.678;8.388;2024-01-15T06:26:07;303.10;;;289.40;;
6864;SDS011;3471;49.678;8.388;2024-01-15T06:28:32;325.15;;;310.48;;
6864;SDS011;3471;49.678;8.388;2024-01-15T06:30:58;410.73;;;390.97;;
6864;SDS011;3471;49.678;8.388;2024-01-15T06:33:24;407.70;;;388.43;;
6864;SDS011;3471;49.678;8.388;2024-01-15T06:35:50;411.27;;;392.25;;
6864;SDS011;3471;49.678;8.388;2024-01-15T06:38:15;412.33;;;391.08;;
6864;SDS011;3471;49.678;8.388;2024-01-15T06:40:41;302.70;;;288.95;;
6864;SDS011;3471;49.678;8.388;2024-01-15T06:43:10;275.50;;;262.13;;
6864;SDS011;3471;49.678;8.388;2024-01-15T06:45:36;258.25;;;246.27;;
6864;SDS011;3471;49.678;8.388;2024-01-15T06:48:02;175.75;;;166.38;;
6864;SDS011;3471;49.678;8.388;2024-01-15T06:50:28;106.75;;;97.45;;
6864;SDS011;3471;49.678;8.388;2024-01-15T06:52:53;214.23;;;203.68;;
6864;SDS011;3471;49.678;8.388;2024-01-15T06:55:19;77.20;;;68.60;;
6864;SDS011;3471;49.678;8.388;2024-01-15T06:57:45;144.82;;;137.43;;
6864;SDS011;3471;49.678;8.388;2024-01-15T07:00:10;66.90;;;60.50;;
6864;SDS011;3471;49.678;8.388;2024-01-15T07:02:36;132.00;;;124.73;;
6864;SDS011;3471;49.678;8.388;2024-01-15T07:05:02;129.60;;;121.77;;
6864;SDS011;3471;49.678;8.388;2024-01-15T07:07:30;88.60;;;82.95;;
6864;SDS011;3471;49.678;8.388;2024-01-15T07:09:56;99.00;;;92.28;;
6864;SDS011;3471;49.678;8.388;2024-01-15T07:12:21;58.28;;;53.30;;
6864;SDS011;3471;49.678;8.388;2024-01-15T07:14:47;174.10;;;164.38;;
6864;SDS011;3471;49.678;8.388;2024-01-15T07:17:13;83.63;;;77.03;;
6864;SDS011;3471;49.678;8.388;2024-01-15T07:19:39;47.25;;;36.38;;
6864;SDS011;3471;49.678;8.388;2024-01-15T07:22:05;44.38;;;33.20;;
6864;SDS011;3471;49.678;8.388;2024-01-15T07:24:31;36.63;;;26.00;;
6864;SDS011;3471;49.678;8.388;2024-01-15T07:26:59;49.77;;;44.70;;
6864;SDS011;3471;49.678;8.388;2024-01-15T07:29:24;33.13;;;23.43;;
6864;SDS011;3471;49.678;8.388;2024-01-15T07:31:50;44.97;;;38.30;;
6864;SDS011;3471;49.678;8.388;2024-01-15T07:34:17;39.90;;;26.85;;
6864;SDS011;3471;49.678;8.388;2024-01-15T07:36:46;26.88;;;22.00;;
6864;SDS011;3471;49.678;8.388;2024-01-15T07:39:12;34.15;;;24.08;;
6864;SDS011;3471;49.678;8.388;2024-01-15T07:41:37;38.83;;;32.83;;
6864;SDS011;3471;49.678;8.388;2024-01-15T07:44:03;42.47;;;26.42;;
6864;SDS011;3471;49.678;8.388;2024-01-15T07:46:29;41.97;;;37.30;;
6864;SDS011;3471;49.678;8.388;2024-01-15T07:48:55;43.03;;;39.95;;
6864;SDS011;3471;49.678;8.388;2024-01-15T07:51:22;70.55;;;64.90;;
6864;SDS011;3471;49.678;8.388;2024-01-15T07:53:52;38.10;;;34.28;;
6864;SDS011;3471;49.678;8.388;2024-01-15T07:56:19;40.03;;;29.35;;
6864;SDS011;3471;49.678;8.388;2024-01-15T07:58:44;103.37;;;97.93;;
6864;SDS011;3471;49.678;8.388;2024-01-15T08:01:10;62.47;;;57.35;;
6864;SDS011;3471;49.678;8.388;2024-01-15T08:03:36;96.13;;;89.32;;
6864;SDS011;3471;49.678;8.388;2024-01-15T08:06:01;53.55;;;49.58;;
6864;SDS011;3471;49.678;8.388;2024-01-15T08:08:27;33.30;;;29.80;;
6864;SDS011;3471;49.678;8.388;2024-01-15T08:10:53;71.25;;;65.70;;
6864;SDS011;3471;49.678;8.388;2024-01-15T08:13:18;82.00;;;77.23;;
6864;SDS011;3471;49.678;8.388;2024-01-15T08:15:45;50.25;;;46.22;;
6864;SDS011;3471;49.678;8.388;2024-01-15T08:18:10;66.40;;;60.80;;
6864;SDS011;3471;49.678;8.388;2024-01-15T08:20:36;149.03;;;140.63;;
6864;SDS011;3471;49.678;8.388;2024-01-15T08:23:02;630.65;;;590.30;;
6864;SDS011;3471;49.678;8.388;2024-01-15T08:25:28;495.30;;;467.67;;
6864;SDS011;3471;49.678;8.388;2024-01-15T08:27:54;440.55;;;419.33;;
6864;SDS011;3471;49.678;8.388;2024-01-15T08:30:21;341.48;;;325.17;;
6864;SDS011;3471;49.678;8.388;2024-01-15T08:32:49;191.95;;;183.75;;
6864;SDS011;3471;49.678;8.388;2024-01-15T08:35:15;241.00;;;229.20;;
6864;SDS011;3471;49.678;8.388;2024-01-15T08:37:41;263.23;;;251.13;;
6864;SDS011;3471;49.678;8.388;2024-01-15T08:40:06;203.63;;;193.70;;
6864;SDS011;3471;49.678;8.388;2024-01-15T08:42:32;111.93;;;105.85;;
6864;SDS011;3471;49.678;8.388;2024-01-15T08:44:58;134.27;;;126.10;;
6864;SDS011;3471;49.678;8.388;2024-01-15T08:47:23;208.10;;;199.20;;
6864;SDS011;3471;49.678;8.388;2024-01-15T08:49:50;117.25;;;110.85;;
6864;SDS011;3471;49.678;8.388;2024-01-15T08:52:16;147.67;;;139.93;;
6864;SDS011;3471;49.678;8.388;2024-01-15T08:54:42;42.77;;;38.97;;
6864;SDS011;3471;49.678;8.388;2024-01-15T08:57:07;86.20;;;80.53;;
6864;SDS011;3471;49.678;8.388;2024-01-15T08:59:33;80.70;;;75.03;;
6864;SDS011;3471;49.678;8.388;2024-01-15T09:01:58;38.33;;;34.53;;
6864;SDS011;3471;49.678;8.388;2024-01-15T09:04:24;52.72;;;49.05;;
6864;SDS011;3471;49.678;8.388;2024-01-15T09:06:50;52.17;;;48.38;;
6864;SDS011;3471;49.678;8.388;2024-01-15T09:09:16;43.27;;;36.50;;
6864;SDS011;3471;49.678;8.388;2024-01-15T09:11:41;41.13;;;37.53;;
6864;SDS011;3471;49.678;8.388;2024-01-15T09:14:07;47.65;;;42.78;;
6864;SDS011;3471;49.678;8.388;2024-01-15T09:16:34;46.00;;;41.85;;
6864;SDS011;3471;49.678;8.388;2024-01-15T09:19:00;45.10;;;41.57;;
6864;SDS011;3471;49.678;8.388;2024-01-15T09:21:25;31.60;;;28.20;;
6864;SDS011;3471;49.678;8.388;2024-01-15T09:23:51;31.00;;;27.73;;
6864;SDS011;3471;49.678;8.388;2024-01-15T09:26:17;43.67;;;39.73;;
6864;SDS011;3471;49.678;8.388;2024-01-15T09:28:42;55.13;;;50.57;;
6864;SDS011;3471;49.678;8.388;2024-01-15T09:31:08;41.35;;;37.80;;
6864;SDS011;3471;49.678;8.388;2024-01-15T09:33:34;116.28;;;110.75;;
6864;SDS011;3471;49.678;8.388;2024-01-15T09:36:03;164.80;;;157.10;;
6864;SDS011;3471;49.678;8.388;2024-01-15T09:38:32;86.43;;;81.13;;
6864;SDS011;3471;49.678;8.388;2024-01-15T09:40:57;107.47;;;101.85;;
6864;SDS011;3471;49.678;8.388;2024-01-15T09:43:23;51.88;;;48.17;;
6864;SDS011;3471;49.678;8.388;2024-01-15T09:45:49;68.03;;;62.95;;
6864;SDS011;3471;49.678;8.388;2024-01-15T09:48:15;45.83;;;42.20;;
6864;SDS011;3471;49.678;8.388;2024-01-15T09:50:41;147.32;;;139.88;;
6864;SDS011;3471;49.678;8.388;2024-01-15T09:53:08;68.50;;;64.03;;
6864;SDS011;3471;49.678;8.388;2024-01-15T09:55:35;48.88;;;45.50;;
6864;SDS011;3471;49.678;8.388;2024-01-15T09:58:03;49.90;;;46.22;;
6864;SDS011;3471;49.678;8.388;2024-01-15T10:00:29;62.97;;;58.33;;
6864;SDS011;3471;49.678;8.388;2024-01-15T10:02:58;100.53;;;94.80;;
6864;SDS011;3471;49.678;8.388;2024-01-15T10:05:25;113.57;;;107.93;;
6864;SDS011;3471;49.678;8.388;2024-01-15T10:07:52;48.92;;;44.72;;
6864;SDS011;3471;49.678;8.388;2024-01-15T10:10:19;52.28;;;48.88;;
6864;SDS011;3471;49.678;8.388;2024-01-15T10:12:46;52.53;;;48.53;;
6864;SDS011;3471;49.678;8.388;2024-01-15T10:15:12;54.73;;;50.70;;
6864;SDS011;3471;49.678;8.388;2024-01-15T10:17:38;28.37;;;24.70;;
6864;SDS011;3471;49.678;8.388;2024-01-15T10:20:14;83.28;;;78.13;;
6864;SDS011;3471;49.678;8.388;2024-01-15T10:22:43;120.95;;;114.43;;
6864;SDS011;3471;49.678;8.388;2024-01-15T10:25:14;25.40;;;23.00;;
6864;SDS011;3471;49.678;8.388;2024-01-15T10:27:40;58.05;;;53.83;;
6864;SDS011;3471;49.678;8.388;2024-01-15T10:30:07;54.22;;;50.70;;
6864;SDS011;3471;49.678;8.388;2024-01-15T10:32:36;78.45;;;73.65;;
6864;SDS011;3471;49.678;8.388;2024-01-15T10:35:03;46.07;;;42.50;;
6864;SDS011;3471;49.678;8.388;2024-01-15T10:37:32;38.33;;;35.25;;
6864;SDS011;3471;49.678;8.388;2024-01-15T10:40:01;29.27;;;25.50;;
6864;SDS011;3471;49.678;8.388;2024-01-15T10:42:29;30.77;;;28.00;;
6864;SDS011;3471;49.678;8.388;2024-01-15T10:44:55;29.95;;;27.27;;
6864;SDS011;3471;49.678;8.388;2024-01-15T10:47:21;36.70;;;32.92;;
6864;SDS011;3471;49.678;8.388;2024-01-15T10:49:47;28.05;;;25.45;;
6864;SDS011;3471;49.678;8.388;2024-01-15T10:52:14;56.75;;;53.72;;
6864;SDS011;3471;49.678;8.388;2024-01-15T10:54:40;48.00;;;43.75;;
6864;SDS011;3471;49.678;8.388;2024-01-15T10:57:08;22.10;;;19.60;;
6864;SDS011;3471;49.678;8.388;2024-01-15T10:59:33;24.47;;;20.97;;
6864;SDS011;3471;49.678;8.388;2024-01-15T11:02:00;21.27;;;18.25;;
6864;SDS011;3471;49.678;8.388;2024-01-15T11:04:25;31.02;;;28.58;;
6864;SDS011;3471;49.678;8.388;2024-01-15T11:06:53;38.72;;;35.25;;
6864;SDS011;3471;49.678;8.388;2024-01-15T11:09:20;25.52;;;22.33;;
6864;SDS011;3471;49.678;8.388;2024-01-15T11:11:46;32.88;;;29.67;;
6864;SDS011;3471;49.678;8.388;2024-01-15T11:17:14;23.52;;;21.10;;
6864;SDS011;3471;49.678;8.388;2024-01-15T11:19:44;38.25;;;35.60;;
6864;SDS011;3471;49.678;8.388;2024-01-15T11:22:56;24.20;;;19.40;;
6864;SDS011;3471;49.678;8.388;2024-01-15T11:25:02;33.45;;;31.17;;
6864;SDS011;3471;49.678;8.388;2024-01-15T11:27:41;53.15;;;49.80;;
6864;SDS011;3471;49.678;8.388;2024-01-15T11:30:17;41.78;;;38.80;;
6864;SDS011;3471;49.678;8.388;2024-01-15T11:32:45;68.30;;;64.05;;
6864;SDS011;3471;49.678;8.388;2024-01-15T11:35:11;31.73;;;29.33;;
6864;SDS011;3471;49.678;8.388;2024-01-15T11:40:17;50.08;;;46.35;;
6864;SDS011;3471;49.678;8.388;2024-01-15T11:42:45;34.00;;;31.05;;
6864;SDS011;3471;49.678;8.388;2024-01-15T11:45:11;22.65;;;19.52;;
6864;SDS011;3471;49.678;8.388;2024-01-15T11:50:17;30.52;;;27.73;;
6864;SDS011;3471;49.678;8.388;2024-01-15T11:52:45;28.70;;;26.15;;
6864;SDS011;3471;49.678;8.388;2024-01-15T11:55:34;19.92;;;15.35;;
6864;SDS011;3471;49.678;8.388;2024-01-15T11:58:07;55.07;;;51.53;;
6864;SDS011;3471;49.678;8.388;2024-01-15T12:00:34;19.65;;;16.90;;
6864;SDS011;3471;49.678;8.388;2024-01-15T12:03:08;18.13;;;13.50;;
6864;SDS011;3471;49.678;8.388;2024-01-15T12:05:36;20.08;;;15.82;;
6864;SDS011;3471;49.678;8.388;2024-01-15T12:08:03;19.30;;;15.93;;
6864;SDS011;3471;49.678;8.388;2024-01-15T12:10:35;16.92;;;15.13;;
6864;SDS011;3471;49.678;8.388;2024-01-15T12:16:22;28.13;;;25.42;;
6864;SDS011;3471;49.678;8.388;2024-01-15T12:18:48;39.90;;;36.50;;
6864;SDS011;3471;49.678;8.388;2024-01-15T12:21:15;40.53;;;37.08;;
6864;SDS011;3471;49.678;8.388;2024-01-15T12:23:41;33.27;;;30.13;;
6864;SDS011;3471;49.678;8.388;2024-01-15T12:26:06;30.97;;;27.13;;
6864;SDS011;3471;49.678;8.388;2024-01-15T12:28:32;27.13;;;24.42;;
6864;SDS011;3471;49.678;8.388;2024-01-15T12:30:58;46.93;;;43.63;;
6864;SDS011;3471;49.678;8.388;2024-01-15T12:33:25;22.10;;;18.35;;
6864;SDS011;3471;49.678;8.388;2024-01-15T12:35:53;19.77;;;17.77;;
6864;SDS011;3471;49.678;8.388;2024-01-15T12:38:19;154.27;;;147.55;;
6864;SDS011;3471;49.678;8.388;2024-01-15T12:40:45;35.07;;;32.63;;
6864;SDS011;3471;49.678;8.388;2024-01-15T12:43:14;18.98;;;12.98;;
6864;SDS011;3471;49.678;8.388;2024-01-15T12:45:40;22.70;;;21.00;;
6864;SDS011;3471;49.678;8.388;2024-01-15T12:48:06;229.70;;;220.55;;
6864;SDS011;3471;49.678;8.388;2024-01-15T12:50:33;59.20;;;56.23;;
6864;SDS011;3471;49.678;8.388;2024-01-15T12:52:59;68.57;;;65.13;;
6864;SDS011;3471;49.678;8.388;2024-01-15T12:55:27;24.65;;;22.58;;
6864;SDS011;3471;49.678;8.388;2024-01-15T12:57:55;58.97;;;55.30;;
6864;SDS011;3471;49.678;8.388;2024-01-15T13:00:20;112.30;;;107.95;;
6864;SDS011;3471;49.678;8.388;2024-01-15T13:02:46;30.20;;;27.87;;
6864;SDS011;3471;49.678;8.388;2024-01-15T13:05:12;20.13;;;11.32;;
6864;SDS011;3471;49.678;8.388;2024-01-15T13:07:38;16.77;;;9.88;;
6864;SDS011;3471;49.678;8.388;2024-01-15T13:10:04;14.88;;;10.65;;
6864;SDS011;3471;49.678;8.388;2024-01-15T13:12:30;12.40;;;10.90;;
6864;SDS011;3471;49.678;8.388;2024-01-15T13:14:58;19.42;;;11.23;;
6864;SDS011;3471;49.678;8.388;2024-01-15T13:17:23;12.73;;;9.87;;
6864;SDS011;3471;49.678;8.388;2024-01-15T13:19:49;12.30;;;10.55;;
6864;SDS011;3471;49.678;8.388;2024-01-15T13:22:14;18.93;;;16.97;;
6864;SDS011;3471;49.678;8.388;2024-01-15T13:24:40;17.42;;;11.05;;
6864;SDS011;3471;49.678;8.388;2024-01-15T13:27:06;10.63;;;9.02;;
6864;SDS011;3471;49.678;8.388;2024-01-15T13:29:32;13.40;;;12.10;;
6864;SDS011;3471;49.678;8.388;2024-01-15T13:31:58;15.15;;;10.63;;
6864;SDS011;3471;49.678;8.388;2024-01-15T13:34:24;10.63;;;8.35;;
6864;SDS011;3471;49.678;8.388;2024-01-15T13:36:49;16.20;;;10.80;;
6864;SDS011;3471;49.678;8.388;2024-01-15T13:39:15;13.98;;;10.50;;
6864;SDS011;3471;49.678;8.388;2024-01-15T13:41:45;18.30;;;10.18;;
6864;SDS011;3471;49.678;8.388;2024-01-15T13:44:11;19.90;;;14.00;;
6864;SDS011;3471;49.678;8.388;2024-01-15T13:46:37;15.17;;;8.40;;
6864;SDS011;3471;49.678;8.388;2024-01-15T13:49:03;21.10;;;19.50;;
6864;SDS011;3471;49.678;8.388;2024-01-15T13:51:30;15.00;;;13.50;;
6864;SDS011;3471;49.678;8.388;2024-01-15T13:53:57;13.43;;;8.32;;
6864;SDS011;3471;49.678;8.388;2024-01-15T13:56:23;10.63;;;9.48;;
6864;SDS011;3471;49.678;8.388;2024-01-15T13:58:48;40.63;;;10.47;;
6864;SDS011;3471;49.678;8.388;2024-01-15T14:01:14;20.73;;;19.02;;
6864;SDS011;3471;49.678;8.388;2024-01-15T14:03:40;11.82;;;10.63;;
6864;SDS011;3471;49.678;8.388;2024-01-15T14:06:06;11.20;;;9.98;;
6864;SDS011;3471;49.678;8.388;2024-01-15T14:08:34;22.40;;;20.50;;
6864;SDS011;3471;49.678;8.388;2024-01-15T14:11:01;9.05;;;6.82;;
6864;SDS011;3471;49.678;8.388;2024-01-15T14:13:28;9.70;;;7.00;;
6864;SDS011;3471;49.678;8.388;2024-01-15T14:15:53;11.13;;;10.13;;
6864;SDS011;3471;49.678;8.388;2024-01-15T14:18:19;8.43;;;7.32;;
6864;SDS011;3471;49.678;8.388;2024-01-15T14:20:44;14.63;;;8.77;;
6864;SDS011;3471;49.678;8.388;2024-01-15T14:23:10;13.20;;;7.33;;
6864;SDS011;3471;49.678;8.388;2024-01-15T14:25:35;8.38;;;7.28;;
6864;SDS011;3471;49.678;8.388;2024-01-15T14:28:01;18.70;;;6.38;;
6864;SDS011;3471;49.678;8.388;2024-01-15T14:30:27;13.83;;;9.10;;
6864;SDS011;3471;49.678;8.388;2024-01-15T14:32:52;33.53;;;31.52;;
6864;SDS011;3471;49.678;8.388;2024-01-15T14:35:18;10.67;;;7.50;;
6864;SDS011;3471;49.678;8.388;2024-01-15T14:37:44;12.20;;;6.90;;
6864;SDS011;3471;49.678;8.388;2024-01-15T14:40:10;14.27;;;8.67;;
6864;SDS011;3471;49.678;8.388;2024-01-15T14:42:37;13.25;;;8.52;;
6864;SDS011;3471;49.678;8.388;2024-01-15T14:45:03;11.07;;;6.73;;